sensor_id;sensor_type;location;lat;lon;timestamp;temperature;humidity
34766;DHT22;20984;43.508;1.504;2022-09-03T00:02:45;21.10;99.90
34766;DHT22;20984;43.508;1.504;2022-09-03T00:05:40;21.10;99.90
34766;DHT22;20984;43.508;1.504;2022-09-03T00:08:25;21.10;99.90
34766;DHT22;20984;43.508;1.504;2022-09-03T00:11:02;21.10;99.90
34766;DHT22;20984;43.508;1.504;2022-09-03T00:13:35;21.10;99.90
34766;DHT22;20984;43.508;1.504;2022-09-03T00:16:05;21.20;99.90
34766;DHT22;20984;43.508;1.504;2022-09-03T00:18:46;21.20;99.90
34766;DHT22;20984;43.508;1.504;2022-09-03T00:21:50;21.20;99.90
34766;DHT22;20984;43.508;1.504;2022-09-03T00:24:20;21.20;99.90
34766;DHT22;20984;43.508;1.504;2022-09-03T00:26:51;21.20;99.90
34766;DHT22;20984;43.508;1.504;2022-09-03T00:29:31;21.20;99.90
34766;DHT22;20984;43.508;1.504;2022-09-03T00:32:17;21.20;99.90
34766;DHT22;20984;43.508;1.504;2022-09-03T00:34:58;21.10;99.90
34766;DHT22;20984;43.508;1.504;2022-09-03T00:37:27;21.10;99.90
34766;DHT22;20984;43.508;1.504;2022-09-03T00:40:19;21.10;99.90
34766;DHT22;20984;43.508;1.504;2022-09-03T00:43:00;21.10;99.90
34766;DHT22;20984;43.508;1.504;2022-09-03T00:45:43;21.10;99.90
34766;DHT22;20984;43.508;1.504;2022-09-03T00:48:30;21.10;99.90
34766;DHT22;20984;43.508;1.504;2022-09-03T00:59:46;20.90;99.90
34766;DHT22;20984;43.508;1.504;2022-09-03T01:03:00;20.90;99.90
34766;DHT22;20984;43.508;1.504;2022-09-03T01:05:39;20.90;99.90
34766;DHT22;20984;43.508;1.504;2022-09-03T01:13:42;20.80;99.90
34766;DHT22;20984;43.508;1.504;2022-09-03T01:16:54;20.80;99.90
34766;DHT22;20984;43.508;1.504;2022-09-03T01:30:26;20.80;99.90
34766;DHT22;20984;43.508;1.504;2022-09-03T01:32:53;20.80;99.90
34766;DHT22;20984;43.508;1.504;2022-09-03T01:46:57;20.70;99.90
34766;DHT22;20984;43.508;1.504;2022-09-03T01:49:53;20.60;99.90
34766;DHT22;20984;43.508;1.504;2022-09-03T01:52:43;20.60;99.90
34766;DHT22;20984;43.508;1.504;2022-09-03T01:55:33;20.50;99.90
34766;DHT22;20984;43.508;1.504;2022-09-03T02:00:43;20.40;99.90
34766;DHT22;20984;43.508;1.504;2022-09-03T02:03:14;20.30;99.90
34766;DHT22;20984;43.508;1.504;2022-09-03T02:05:41;20.30;99.90
34766;DHT22;20984;43.508;1.504;2022-09-03T02:08:09;20.20;99.90
34766;DHT22;20984;43.508;1.504;2022-09-03T02:10:47;20.10;99.90
34766;DHT22;20984;43.508;1.504;2022-09-03T02:13:32;20.00;99.90
34766;DHT22;20984;43.508;1.504;2022-09-03T02:16:27;20.00;99.90
34766;DHT22;20984;43.508;1.504;2022-09-03T02:18:55;19.90;99.90
34766;DHT22;20984;43.508;1.504;2022-09-03T02:21:27;19.90;99.90
34766;DHT22;20984;43.508;1.504;2022-09-03T02:23:57;19.90;99.90
34766;DHT22;20984;43.508;1.504;2022-09-03T02:26:25;19.80;99.90
34766;DHT22;20984;43.508;1.504;2022-09-03T02:28:53;19.70;99.90
34766;DHT22;20984;43.508;1.504;2022-09-03T02:31:20;19.60;99.90
34766;DHT22;20984;43.508;1.504;2022-09-03T02:33:47;19.50;99.90
34766;DHT22;20984;43.508;1.504;2022-09-03T02:36:17;19.40;99.90
34766;DHT22;20984;43.508;1.504;2022-09-03T02:38:44;19.30;99.90
34766;DHT22;20984;43.508;1.504;2022-09-03T02:41:10;19.20;99.90
34766;DHT22;20984;43.508;1.504;2022-09-03T02:44:02;19.20;99.90
34766;DHT22;20984;43.508;1.504;2022-09-03T02:46:40;19.10;99.90
34766;DHT22;20984;43.508;1.504;2022-09-03T02:49:08;19.10;99.90
34766;DHT22;20984;43.508;1.504;2022-09-03T02:51:36;19.00;99.90
34766;DHT22;20984;43.508;1.504;2022-09-03T02:54:03;18.90;99.90
34766;DHT22;20984;43.508;1.504;2022-09-03T02:56:29;18.50;99.90
34766;DHT22;20984;43.508;1.504;2022-09-03T02:58:55;18.30;99.90
34766;DHT22;20984;43.508;1.504;2022-09-03T03:01:22;18.00;99.90
34766;DHT22;20984;43.508;1.504;2022-09-03T03:03:48;17.80;99.90
34766;DHT22;20984;43.508;1.504;2022-09-03T03:06:13;17.70;99.90
34766;DHT22;20984;43.508;1.504;2022-09-03T03:08:39;17.60;99.90
34766;DHT22;20984;43.508;1.504;2022-09-03T03:11:06;17.60;99.90
34766;DHT22;20984;43.508;1.504;2022-09-03T03:13:32;17.60;99.90
34766;DHT22;20984;43.508;1.504;2022-09-03T03:15:59;17.60;99.90
34766;DHT22;20984;43.508;1.504;2022-09-03T03:18:26;17.50;99.90
34766;DHT22;20984;43.508;1.504;2022-09-03T03:20:53;17.50;99.90
34766;DHT22;20984;43.508;1.504;2022-09-03T03:23:19;17.50;99.90
34766;DHT22;20984;43.508;1.504;2022-09-03T03:25:46;17.50;99.90
34766;DHT22;20984;43.508;1.504;2022-09-03T03:28:12;17.60;99.90
34766;DHT22;20984;43.508;1.504;2022-09-03T03:30:43;17.60;99.90
34766;DHT22;20984;43.508;1.504;2022-09-03T03:33:11;17.70;99.90
34766;DHT22;20984;43.508;1.504;2022-09-03T03:35:37;17.70;99.90
34766;DHT22;20984;43.508;1.504;2022-09-03T03:38:05;17.70;99.90
34766;DHT22;20984;43.508;1.504;2022-09-03T03:40:31;17.60;99.90
34766;DHT22;20984;43.508;1.504;2022-09-03T03:42:57;17.50;99.90
34766;DHT22;20984;43.508;1.504;2022-09-03T03:45:23;17.50;99.90
34766;DHT22;20984;43.508;1.504;2022-09-03T03:47:49;17.50;99.90
34766;DHT22;20984;43.508;1.504;2022-09-03T03:50:15;17.60;99.90
34766;DHT22;20984;43.508;1.504;2022-09-03T03:52:41;17.50;99.90
34766;DHT22;20984;43.508;1.504;2022-09-03T03:55:08;17.60;99.90
34766;DHT22;20984;43.508;1.504;2022-09-03T03:57:34;17.60;99.90
34766;DHT22;20984;43.508;1.504;2022-09-03T04:00:01;17.60;99.90
34766;DHT22;20984;43.508;1.504;2022-09-03T04:02:27;17.50;99.90
34766;DHT22;20984;43.508;1.504;2022-09-03T04:04:53;17.60;99.90
34766;DHT22;20984;43.508;1.504;2022-09-03T04:07:19;17.60;99.90
34766;DHT22;20984;43.508;1.504;2022-09-03T04:09:45;17.60;99.90
34766;DHT22;20984;43.508;1.504;2022-09-03T04:12:11;17.60;99.90
34766;DHT22;20984;43.508;1.504;2022-09-03T04:14:37;17.50;99.90
34766;DHT22;20984;43.508;1.504;2022-09-03T04:17:03;17.50;99.90
34766;DHT22;20984;43.508;1.504;2022-09-03T04:19:29;17.50;99.90
34766;DHT22;20984;43.508;1.504;2022-09-03T04:21:55;17.50;99.90
34766;DHT22;20984;43.508;1.504;2022-09-03T04:24:21;17.50;99.90
34766;DHT22;20984;43.508;1.504;2022-09-03T04:26:47;17.50;99.90
34766;DHT22;20984;43.508;1.504;2022-09-03T04:29:15;17.50;99.90
34766;DHT22;20984;43.508;1.504;2022-09-03T04:31:41;17.50;99.90
34766;DHT22;20984;43.508;1.504;2022-09-03T04:34:29;17.50;99.90
34766;DHT22;20984;43.508;1.504;2022-09-03T04:36:55;17.50;99.90
34766;DHT22;20984;43.508;1.504;2022-09-03T04:39:23;17.50;99.90
34766;DHT22;20984;43.508;1.504;2022-09-03T04:41:49;17.50;99.90
34766;DHT22;20984;43.508;1.504;2022-09-03T04:44:15;17.50;99.90
34766;DHT22;20984;43.508;1.504;2022-09-03T04:46:41;17.50;99.90
34766;DHT22;20984;43.508;1.504;2022-09-03T04:49:07;17.60;99.90
34766;DHT22;20984;43.508;1.504;2022-09-03T04:51:34;17.60;99.90
34766;DHT22;20984;43.508;1.504;2022-09-03T04:54:02;17.60;99.90
34766;DHT22;20984;43.508;1.504;2022-09-03T04:56:30;17.60;99.90
34766;DHT22;20984;43.508;1.504;2022-09-03T04:58:58;17.60;99.90
34766;DHT22;20984;43.508;1.504;2022-09-03T05:01:26;17.60;99.90
34766;DHT22;20984;43.508;1.504;2022-09-03T05:03:56;17.70;99.90
34766;DHT22;20984;43.508;1.504;2022-09-03T05:06:23;17.60;99.90
34766;DHT22;20984;43.508;1.504;2022-09-03T05:08:51;17.60;99.90
34766;DHT22;20984;43.508;1.504;2022-09-03T05:11:18;17.70;99.90
34766;DHT22;20984;43.508;1.504;2022-09-03T05:13:47;17.70;99.90
34766;DHT22;20984;43.508;1.504;2022-09-03T05:16:13;17.70;99.90
34766;DHT22;20984;43.508;1.504;2022-09-03T05:18:39;17.80;99.90
34766;DHT22;20984;43.508;1.504;2022-09-03T05:21:14;17.80;99.90
34766;DHT22;20984;43.508;1.504;2022-09-03T05:23:42;17.80;99.90
34766;DHT22;20984;43.508;1.504;2022-09-03T05:26:12;17.80;99.90
34766;DHT22;20984;43.508;1.504;2022-09-03T05:28:39;17.80;99.90
34766;DHT22;20984;43.508;1.504;2022-09-03T05:31:06;17.90;99.90
34766;DHT22;20984;43.508;1.504;2022-09-03T05:33:33;17.90;99.90
34766;DHT22;20984;43.508;1.504;2022-09-03T05:36:01;17.90;99.90
34766;DHT22;20984;43.508;1.504;2022-09-03T05:38:27;17.90;99.90
34766;DHT22;20984;43.508;1.504;2022-09-03T05:40:53;17.90;99.90
34766;DHT22;20984;43.508;1.504;2022-09-03T05:43:22;17.90;99.90
34766;DHT22;20984;43.508;1.504;2022-09-03T05:45:48;18.00;99.90
34766;DHT22;20984;43.508;1.504;2022-09-03T05:48:13;18.00;99.90
34766;DHT22;20984;43.508;1.504;2022-09-03T05:50:39;18.10;99.90
34766;DHT22;20984;43.508;1.504;2022-09-03T05:53:05;18.10;99.90
34766;DHT22;20984;43.508;1.504;2022-09-03T05:55:31;18.20;99.90
34766;DHT22;20984;43.508;1.504;2022-09-03T05:57:58;18.20;99.90
34766;DHT22;20984;43.508;1.504;2022-09-03T06:00:24;18.20;99.90
34766;DHT22;20984;43.508;1.504;2022-09-03T06:02:51;18.30;99.90
34766;DHT22;20984;43.508;1.504;2022-09-03T06:05:18;18.40;99.90
34766;DHT22;20984;43.508;1.504;2022-09-03T06:07:44;18.40;99.90
34766;DHT22;20984;43.508;1.504;2022-09-03T06:10:14;18.60;99.90
34766;DHT22;20984;43.508;1.504;2022-09-03T06:12:42;18.60;99.90
34766;DHT22;20984;43.508;1.504;2022-09-03T06:15:10;18.80;99.90
34766;DHT22;20984;43.508;1.504;2022-09-03T06:17:37;19.00;99.90
34766;DHT22;20984;43.508;1.504;2022-09-03T06:20:03;19.00;99.90
34766;DHT22;20984;43.508;1.504;2022-09-03T06:22:29;19.10;99.90
34766;DHT22;20984;43.508;1.504;2022-09-03T06:24:55;19.30;99.90
34766;DHT22;20984;43.508;1.504;2022-09-03T06:27:21;19.40;99.90
34766;DHT22;20984;43.508;1.504;2022-09-03T06:29:47;19.30;99.90
34766;DHT22;20984;43.508;1.504;2022-09-03T06:32:13;19.40;99.90
34766;DHT22;20984;43.508;1.504;2022-09-03T06:34:39;19.40;99.90
34766;DHT22;20984;43.508;1.504;2022-09-03T06:37:05;19.40;99.90
34766;DHT22;20984;43.508;1.504;2022-09-03T06:39:30;19.50;99.90
34766;DHT22;20984;43.508;1.504;2022-09-03T06:41:56;19.50;99.90
34766;DHT22;20984;43.508;1.504;2022-09-03T06:44:22;19.40;99.90
34766;DHT22;20984;43.508;1.504;2022-09-03T06:46:48;19.40;99.90
34766;DHT22;20984;43.508;1.504;2022-09-03T06:49:18;19.60;99.90
34766;DHT22;20984;43.508;1.504;2022-09-03T06:51:44;19.60;99.90
34766;DHT22;20984;43.508;1.504;2022-09-03T06:54:11;19.70;99.90
34766;DHT22;20984;43.508;1.504;2022-09-03T06:56:39;19.70;99.90
34766;DHT22;20984;43.508;1.504;2022-09-03T06:59:09;19.60;99.90
34766;DHT22;20984;43.508;1.504;2022-09-03T07:01:35;19.70;99.90
34766;DHT22;20984;43.508;1.504;2022-09-03T07:04:06;19.70;99.90
34766;DHT22;20984;43.508;1.504;2022-09-03T07:06:34;19.80;99.90
34766;DHT22;20984;43.508;1.504;2022-09-03T07:09:09;19.80;99.90
34766;DHT22;20984;43.508;1.504;2022-09-03T07:11:35;19.80;99.90
34766;DHT22;20984;43.508;1.504;2022-09-03T07:14:03;19.90;99.90
34766;DHT22;20984;43.508;1.504;2022-09-03T07:17:03;20.00;99.90
34766;DHT22;20984;43.508;1.504;2022-09-03T07:19:32;20.00;99.90
34766;DHT22;20984;43.508;1.504;2022-09-03T07:21:58;20.10;99.90
34766;DHT22;20984;43.508;1.504;2022-09-03T07:24:24;20.20;99.90
34766;DHT22;20984;43.508;1.504;2022-09-03T07:26:52;20.10;99.90
34766;DHT22;20984;43.508;1.504;2022-09-03T07:29:20;20.20;99.90
34766;DHT22;20984;43.508;1.504;2022-09-03T07:31:46;20.10;99.90
34766;DHT22;20984;43.508;1.504;2022-09-03T07:34:13;20.00;99.90
34766;DHT22;20984;43.508;1.504;2022-09-03T07:36:45;20.00;99.90
34766;DHT22;20984;43.508;1.504;2022-09-03T07:39:13;20.00;99.90
34766;DHT22;20984;43.508;1.504;2022-09-03T07:41:40;20.10;99.90
34766;DHT22;20984;43.508;1.504;2022-09-03T07:44:14;20.30;99.90
34766;DHT22;20984;43.508;1.504;2022-09-03T07:46:40;20.60;99.90
34766;DHT22;20984;43.508;1.504;2022-09-03T07:49:07;20.80;99.90
34766;DHT22;20984;43.508;1.504;2022-09-03T07:51:36;21.00;99.90
34766;DHT22;20984;43.508;1.504;2022-09-03T07:54:07;20.90;99.90
34766;DHT22;20984;43.508;1.504;2022-09-03T07:56:35;21.00;99.90
34766;DHT22;20984;43.508;1.504;2022-09-03T07:59:02;21.10;99.90
34766;DHT22;20984;43.508;1.504;2022-09-03T08:01:30;21.10;99.90
34766;DHT22;20984;43.508;1.504;2022-09-03T08:03:57;21.20;99.90
34766;DHT22;20984;43.508;1.504;2022-09-03T08:06:25;21.30;99.90
34766;DHT22;20984;43.508;1.504;2022-09-03T08:08:59;21.40;99.90
34766;DHT22;20984;43.508;1.504;2022-09-03T08:11:27;21.40;99.90
34766;DHT22;20984;43.508;1.504;2022-09-03T08:14:04;21.40;99.90
34766;DHT22;20984;43.508;1.504;2022-09-03T08:16:33;21.30;99.90
34766;DHT22;20984;43.508;1.504;2022-09-03T08:19:00;21.20;99.90
34766;DHT22;20984;43.508;1.504;2022-09-03T08:21:27;21.30;99.90
34766;DHT22;20984;43.508;1.504;2022-09-03T08:23:54;21.20;99.90
34766;DHT22;20984;43.508;1.504;2022-09-03T08:26:33;21.20;99.90
34766;DHT22;20984;43.508;1.504;2022-09-03T08:29:00;21.30;99.90
34766;DHT22;20984;43.508;1.504;2022-09-03T08:31:27;21.60;99.90
34766;DHT22;20984;43.508;1.504;2022-09-03T08:33:55;21.70;99.90
34766;DHT22;20984;43.508;1.504;2022-09-03T08:36:24;21.90;99.90
34766;DHT22;20984;43.508;1.504;2022-09-03T08:38:51;22.00;99.90
34766;DHT22;20984;43.508;1.504;2022-09-03T08:42:03;22.10;99.90
34766;DHT22;20984;43.508;1.504;2022-09-03T08:44:47;22.00;99.90
34766;DHT22;20984;43.508;1.504;2022-09-03T08:50:12;21.90;99.90
34766;DHT22;20984;43.508;1.504;2022-09-03T08:52:59;22.00;99.90
34766;DHT22;20984;43.508;1.504;2022-09-03T08:58:19;22.00;99.90
34766;DHT22;20984;43.508;1.504;2022-09-03T09:06:18;21.70;99.90
34766;DHT22;20984;43.508;1.504;2022-09-03T09:16:22;22.20;99.90
34766;DHT22;20984;43.508;1.504;2022-09-03T09:21:39;22.40;99.90
34766;DHT22;20984;43.508;1.504;2022-09-03T09:24:25;22.30;99.90
34766;DHT22;20984;43.508;1.504;2022-09-03T09:26:57;22.40;99.90
34766;DHT22;20984;43.508;1.504;2022-09-03T09:29:29;22.40;99.90
34766;DHT22;20984;43.508;1.504;2022-09-03T09:31:56;22.50;99.90
34766;DHT22;20984;43.508;1.504;2022-09-03T09:34:22;22.80;99.90
34766;DHT22;20984;43.508;1.504;2022-09-03T09:36:54;22.90;99.90
34766;DHT22;20984;43.508;1.504;2022-09-03T09:39:21;22.70;99.90
34766;DHT22;20984;43.508;1.504;2022-09-03T09:42:01;22.60;99.90
34766;DHT22;20984;43.508;1.504;2022-09-03T09:44:30;22.40;99.90
34766;DHT22;20984;43.508;1.504;2022-09-03T09:47:11;22.30;99.90
34766;DHT22;20984;43.508;1.504;2022-09-03T09:52:13;22.00;99.90
34766;DHT22;20984;43.508;1.504;2022-09-03T09:54:41;22.20;99.90
34766;DHT22;20984;43.508;1.504;2022-09-03T09:57:14;22.30;99.90
34766;DHT22;20984;43.508;1.504;2022-09-03T09:59:43;22.30;99.90
34766;DHT22;20984;43.508;1.504;2022-09-03T10:04:36;22.20;99.90
34766;DHT22;20984;43.508;1.504;2022-09-03T10:07:28;22.40;99.90
34766;DHT22;20984;43.508;1.504;2022-09-03T10:12:59;22.80;99.90
34766;DHT22;20984;43.508;1.504;2022-09-03T10:19:04;22.80;99.90
34766;DHT22;20984;43.508;1.504;2022-09-03T10:22:02;22.70;99.90
34766;DHT22;20984;43.508;1.504;2022-09-03T10:27:20;22.70;99.90
34766;DHT22;20984;43.508;1.504;2022-09-03T10:29:46;22.90;99.90
34766;DHT22;20984;43.508;1.504;2022-09-03T10:33:23;23.00;99.90
34766;DHT22;20984;43.508;1.504;2022-09-03T10:35:29;23.00;99.90
34766;DHT22;20984;43.508;1.504;2022-09-03T10:46:26;23.20;99.90
34766;DHT22;20984;43.508;1.504;2022-09-03T10:49:07;23.20;99.90
34766;DHT22;20984;43.508;1.504;2022-09-03T10:51:51;23.10;99.90
34766;DHT22;20984;43.508;1.504;2022-09-03T11:00:10;23.50;99.90
34766;DHT22;20984;43.508;1.504;2022-09-03T11:02:55;23.80;99.90
34766;DHT22;20984;43.508;1.504;2022-09-03T11:05:36;23.90;99.90
34766;DHT22;20984;43.508;1.504;2022-09-03T11:10:45;23.90;99.90
34766;DHT22;20984;43.508;1.504;2022-09-03T11:16:05;24.30;99.90
34766;DHT22;20984;43.508;1.504;2022-09-03T11:21:10;24.50;99.90
34766;DHT22;20984;43.508;1.504;2022-09-03T11:23:41;24.60;99.90
34766;DHT22;20984;43.508;1.504;2022-09-03T11:26:11;24.80;99.90
34766;DHT22;20984;43.508;1.504;2022-09-03T11:28:40;24.90;99.90
34766;DHT22;20984;43.508;1.504;2022-09-03T11:34:12;25.00;99.90
34766;DHT22;20984;43.508;1.504;2022-09-03T11:36:43;24.80;99.90
34766;DHT22;20984;43.508;1.504;2022-09-03T11:39:35;24.70;99.90
34766;DHT22;20984;43.508;1.504;2022-09-03T11:42:27;24.60;99.90
34766;DHT22;20984;43.508;1.504;2022-09-03T11:45:32;24.50;99.90
34766;DHT22;20984;43.508;1.504;2022-09-03T11:47:59;24.50;99.90
34766;DHT22;20984;43.508;1.504;2022-09-03T11:50:32;24.90;99.90
34766;DHT22;20984;43.508;1.504;2022-09-03T11:55:58;25.20;99.90
34766;DHT22;20984;43.508;1.504;2022-09-03T11:58:38;25.20;99.90
34766;DHT22;20984;43.508;1.504;2022-09-03T12:01:15;25.40;99.90
34766;DHT22;20984;43.508;1.504;2022-09-03T12:03:50;25.20;99.90
34766;DHT22;20984;43.508;1.504;2022-09-03T12:09:42;25.40;99.90
34766;DHT22;20984;43.508;1.504;2022-09-03T12:12:28;25.50;99.90
34766;DHT22;20984;43.508;1.504;2022-09-03T12:20:59;25.30;99.90
34766;DHT22;20984;43.508;1.504;2022-09-03T12:23:34;25.70;99.90
34766;DHT22;20984;43.508;1.504;2022-09-03T12:26:07;25.60;99.90
34766;DHT22;20984;43.508;1.504;2022-09-03T12:28:37;25.70;99.90
34766;DHT22;20984;43.508;1.504;2022-09-03T12:33:45;25.90;99.90
34766;DHT22;20984;43.508;1.504;2022-09-03T12:36:15;26.10;99.90
34766;DHT22;20984;43.508;1.504;2022-09-03T12:38:43;26.30;99.90
34766;DHT22;20984;43.508;1.504;2022-09-03T12:41:26;26.20;99.90
34766;DHT22;20984;43.508;1.504;2022-09-03T12:43:57;26.20;99.90
34766;DHT22;20984;43.508;1.504;2022-09-03T12:46:29;26.20;99.90
34766;DHT22;20984;43.508;1.504;2022-09-03T12:49:03;26.40;99.90
34766;DHT22;20984;43.508;1.504;2022-09-03T12:51:41;26.70;99.90
34766;DHT22;20984;43.508;1.504;2022-09-03T12:54:10;27.00;99.90
34766;DHT22;20984;43.508;1.504;2022-09-03T12:57:07;26.90;99.90
34766;DHT22;20984;43.508;1.504;2022-09-03T12:59:35;26.60;99.90
34766;DHT22;20984;43.508;1.504;2022-09-03T13:02:10;26.20;99.90
34766;DHT22;20984;43.508;1.504;2022-09-03T13:04:41;26.20;99.90
34766;DHT22;20984;43.508;1.504;2022-09-03T13:07:21;26.10;99.90
34766;DHT22;20984;43.508;1.504;2022-09-03T13:09:48;26.00;99.90
34766;DHT22;20984;43.508;1.504;2022-09-03T13:12:33;26.10;99.90
34766;DHT22;20984;43.508;1.504;2022-09-03T13:15:06;26.20;99.90
34766;DHT22;20984;43.508;1.504;2022-09-03T13:26:11;26.60;99.90
34766;DHT22;20984;43.508;1.504;2022-09-03T13:28:48;26.60;99.90
34766;DHT22;20984;43.508;1.504;2022-09-03T13:31:28;26.60;99.90
34766;DHT22;20984;43.508;1.504;2022-09-03T13:34:06;26.60;99.90
34766;DHT22;20984;43.508;1.504;2022-09-03T13:39:46;27.10;99.90
34766;DHT22;20984;43.508;1.504;2022-09-03T13:42:44;27.60;99.90
34766;DHT22;20984;43.508;1.504;2022-09-03T13:48:14;27.90;99.90
34766;DHT22;20984;43.508;1.504;2022-09-03T13:51:21;27.80;99.90
34766;DHT22;20984;43.508;1.504;2022-09-03T13:54:24;28.40;99.90
34766;DHT22;20984;43.508;1.504;2022-09-03T13:57:34;28.70;99.90
34766;DHT22;20984;43.508;1.504;2022-09-03T14:00:09;28.90;99.90
34766;DHT22;20984;43.508;1.504;2022-09-03T14:02:57;28.50;99.90
34766;DHT22;20984;43.508;1.504;2022-09-03T14:05:46;28.60;99.90
34766;DHT22;20984;43.508;1.504;2022-09-03T14:08:42;28.80;99.90
34766;DHT22;20984;43.508;1.504;2022-09-03T14:22:17;27.80;99.90
34766;DHT22;20984;43.508;1.504;2022-09-03T14:24:52;27.70;99.90
34766;DHT22;20984;43.508;1.504;2022-09-03T14:27:28;27.60;99.90
34766;DHT22;20984;43.508;1.504;2022-09-03T14:30:00;27.60;99.90
34766;DHT22;20984;43.508;1.504;2022-09-03T14:32:55;27.50;99.90
34766;DHT22;20984;43.508;1.504;2022-09-03T14:35:42;27.10;99.90
34766;DHT22;20984;43.508;1.504;2022-09-03T14:41:05;27.30;99.90
34766;DHT22;20984;43.508;1.504;2022-09-03T14:52:28;27.40;99.90
34766;DHT22;20984;43.508;1.504;2022-09-03T14:55:32;27.50;99.90
34766;DHT22;20984;43.508;1.504;2022-09-03T15:00:50;27.90;99.90
34766;DHT22;20984;43.508;1.504;2022-09-03T15:06:22;27.90;99.90
34766;DHT22;20984;43.508;1.504;2022-09-03T15:09:14;27.80;99.90
34766;DHT22;20984;43.508;1.504;2022-09-03T15:11:56;27.70;99.90
34766;DHT22;20984;43.508;1.504;2022-09-03T15:14:28;28.00;99.90
34766;DHT22;20984;43.508;1.504;2022-09-03T15:16:58;28.10;99.90
34766;DHT22;20984;43.508;1.504;2022-09-03T15:19:57;28.50;99.90
34766;DHT22;20984;43.508;1.504;2022-09-03T15:28:14;28.60;99.20
34766;DHT22;20984;43.508;1.504;2022-09-03T15:36:53;29.00;99.40
34766;DHT22;20984;43.508;1.504;2022-09-03T15:39:24;29.10;99.90
34766;DHT22;20984;43.508;1.504;2022-09-03T15:42:25;29.60;99.00
34766;DHT22;20984;43.508;1.504;2022-09-03T15:44:59;31.00;97.10
34766;DHT22;20984;43.508;1.504;2022-09-03T15:50:34;33.70;91.50
34766;DHT22;20984;43.508;1.504;2022-09-03T16:02:24;35.30;77.90
34766;DHT22;20984;43.508;1.504;2022-09-03T16:15:25;29.20;93.50
34766;DHT22;20984;43.508;1.504;2022-09-03T16:23:58;27.80;98.10
34766;DHT22;20984;43.508;1.504;2022-09-03T16:26:39;27.60;99.90
34766;DHT22;20984;43.508;1.504;2022-09-03T16:29:15;27.50;99.70
34766;DHT22;20984;43.508;1.504;2022-09-03T16:34:43;27.60;99.90
34766;DHT22;20984;43.508;1.504;2022-09-03T16:37:28;27.70;99.60
34766;DHT22;20984;43.508;1.504;2022-09-03T16:40:36;27.80;99.90
34766;DHT22;20984;43.508;1.504;2022-09-03T16:54:31;27.80;98.80
34766;DHT22;20984;43.508;1.504;2022-09-03T17:05:21;27.60;97.90
34766;DHT22;20984;43.508;1.504;2022-09-03T17:08:07;27.60;97.80
34766;DHT22;20984;43.508;1.504;2022-09-03T17:18:31;27.30;99.90
34766;DHT22;20984;43.508;1.504;2022-09-03T17:26:38;26.50;99.90
34766;DHT22;20984;43.508;1.504;2022-09-03T17:35:13;26.20;99.90
34766;DHT22;20984;43.508;1.504;2022-09-03T17:40:52;26.00;99.90
34766;DHT22;20984;43.508;1.504;2022-09-03T17:43:55;25.90;99.90
34766;DHT22;20984;43.508;1.504;2022-09-03T17:49:02;25.50;99.90
34766;DHT22;20984;43.508;1.504;2022-09-03T17:59:54;24.60;99.90
34766;DHT22;20984;43.508;1.504;2022-09-03T18:02:49;24.50;99.90
34766;DHT22;20984;43.508;1.504;2022-09-03T18:10:26;24.10;99.90
34766;DHT22;20984;43.508;1.504;2022-09-03T18:16:13;23.80;99.90
34766;DHT22;20984;43.508;1.504;2022-09-03T18:18:46;23.60;99.90
34766;DHT22;20984;43.508;1.504;2022-09-03T18:21:20;23.60;99.90
34766;DHT22;20984;43.508;1.504;2022-09-03T18:24:22;23.40;99.90
34766;DHT22;20984;43.508;1.504;2022-09-03T18:27:16;23.30;99.90
34766;DHT22;20984;43.508;1.504;2022-09-03T18:30:10;23.20;99.90
34766;DHT22;20984;43.508;1.504;2022-09-03T18:32:55;23.10;99.90
34766;DHT22;20984;43.508;1.504;2022-09-03T18:35:43;23.00;99.90
34766;DHT22;20984;43.508;1.504;2022-09-03T18:38:38;22.90;99.90
34766;DHT22;20984;43.508;1.504;2022-09-03T18:41:59;22.80;99.90
34766;DHT22;20984;43.508;1.504;2022-09-03T18:51:37;22.60;99.90
34766;DHT22;20984;43.508;1.504;2022-09-03T19:04:03;22.40;99.90
34766;DHT22;20984;43.508;1.504;2022-09-03T19:07:01;22.40;99.90
34766;DHT22;20984;43.508;1.504;2022-09-03T19:12:55;22.20;99.90
34766;DHT22;20984;43.508;1.504;2022-09-03T19:22:07;22.00;99.90
34766;DHT22;20984;43.508;1.504;2022-09-03T19:25:04;21.90;99.90
34766;DHT22;20984;43.508;1.504;2022-09-03T19:40:51;21.70;99.90
34766;DHT22;20984;43.508;1.504;2022-09-03T19:43:49;21.70;99.90
34766;DHT22;20984;43.508;1.504;2022-09-03T19:46:48;21.60;99.90
34766;DHT22;20984;43.508;1.504;2022-09-03T19:53:01;21.60;99.90
34766;DHT22;20984;43.508;1.504;2022-09-03T19:55:51;21.60;99.90
34766;DHT22;20984;43.508;1.504;2022-09-03T19:58:42;21.50;99.90
34766;DHT22;20984;43.508;1.504;2022-09-03T20:01:33;21.50;99.90
34766;DHT22;20984;43.508;1.504;2022-09-03T20:04:20;21.50;99.90
34766;DHT22;20984;43.508;1.504;2022-09-03T20:07:09;21.50;99.90
34766;DHT22;20984;43.508;1.504;2022-09-03T20:09:56;21.50;99.90
34766;DHT22;20984;43.508;1.504;2022-09-03T20:21:24;21.40;99.90
34766;DHT22;20984;43.508;1.504;2022-09-03T20:29:57;21.40;99.90
34766;DHT22;20984;43.508;1.504;2022-09-03T20:32:52;21.30;99.90
34766;DHT22;20984;43.508;1.504;2022-09-03T20:44:05;21.10;99.90
34766;DHT22;20984;43.508;1.504;2022-09-03T20:52:16;20.90;99.90
34766;DHT22;20984;43.508;1.504;2022-09-03T20:55:05;20.80;99.90
34766;DHT22;20984;43.508;1.504;2022-09-03T20:57:58;20.80;99.90
34766;DHT22;20984;43.508;1.504;2022-09-03T21:00:38;20.70;99.90
34766;DHT22;20984;43.508;1.504;2022-09-03T21:03:14;20.70;99.90
34766;DHT22;20984;43.508;1.504;2022-09-03T21:14:11;20.60;99.90
34766;DHT22;20984;43.508;1.504;2022-09-03T21:19:53;20.50;99.90
34766;DHT22;20984;43.508;1.504;2022-09-03T21:25:01;20.40;99.90
34766;DHT22;20984;43.508;1.504;2022-09-03T21:27:31;20.40;99.90
34766;DHT22;20984;43.508;1.504;2022-09-03T21:30:07;20.40;99.90
34766;DHT22;20984;43.508;1.504;2022-09-03T21:32:38;20.40;99.90
34766;DHT22;20984;43.508;1.504;2022-09-03T21:35:27;20.30;99.90
34766;DHT22;20984;43.508;1.504;2022-09-03T21:38:21;20.30;99.90
34766;DHT22;20984;43.508;1.504;2022-09-03T21:43:57;20.20;99.90
34766;DHT22;20984;43.508;1.504;2022-09-03T21:46:36;20.20;99.90
34766;DHT22;20984;43.508;1.504;2022-09-03T21:49:11;20.10;99.90
34766;DHT22;20984;43.508;1.504;2022-09-03T21:52:01;20.10;99.90
34766;DHT22;20984;43.508;1.504;2022-09-03T21:54:32;20.00;99.90
34766;DHT22;20984;43.508;1.504;2022-09-03T22:04:46;19.90;99.90
34766;DHT22;20984;43.508;1.504;2022-09-03T22:15:27;19.80;99.90
34766;DHT22;20984;43.508;1.504;2022-09-03T22:18:05;19.70;99.90
34766;DHT22;20984;43.508;1.504;2022-09-03T22:20:35;19.70;99.90
34766;DHT22;20984;43.508;1.504;2022-09-03T22:23:15;19.70;99.90
34766;DHT22;20984;43.508;1.504;2022-09-03T22:31:56;19.70;99.90
34766;DHT22;20984;43.508;1.504;2022-09-03T22:37:04;19.60;99.90